Time;durP1;ratioP1;P1;durP2;ratioP2;P2;SDS_P1;SDS_P2;PMS_P1;PMS_P2;Temp;Humidity;BMP_temperature;BMP_pressure;BME280_temperature;BME280_humidity;BME280_pressure;Samples;Min_cycle;Max_cycle;Signal;HPM_P1;HPM_P2
2023/07/27 00:02:17;;;;;;;6.18;2.65;;;;;;;12.09;100.00;98710.31;5020458;28;20033;-53
2023/07/27 00:04:42;;;;;;;5.10;2.70;;;;;;;12.07;100.00;98705.09;5017908;28;20038;-53
2023/07/27 00:07:07;;;;;;;5.28;2.20;;;;;;;12.10;100.00;98701.13;5026772;28;20359;-53
2023/07/27 00:09:32;;;;;;;6.50;3.03;;;;;;;12.17;100.00;98706.53;5033351;28;20520;-53
2023/07/27 00:11:58;;;;;;;5.50;2.75;;;;;;;12.27;100.00;98698.75;5034143;28;20029;-53
2023/07/27 00:14:23;;;;;;;2.78;2.08;;;;;;;12.34;100.00;98704.13;5029185;28;20108;-53
2023/07/27 00:16:48;;;;;;;3.70;2.33;;;;;;;12.36;100.00;98700.16;5020961;28;20041;-53
2023/07/27 00:19:14;;;;;;;4.78;2.90;;;;;;;12.44;100.00;98689.06;5022254;28;20048;-53
2023/07/27 00:21:39;;;;;;;6.38;2.58;;;;;;;12.48;100.00;98694.88;5028960;28;20029;-55
2023/07/27 00:24:05;;;;;;;3.70;2.60;;;;;;;12.59;100.00;98690.63;5042735;28;20473;-54
2023/07/27 00:26:30;;;;;;;2.72;1.95;;;;;;;12.66;100.00;98673.25;5024681;28;20455;-55
2023/07/27 00:28:56;;;;;;;6.20;2.20;;;;;;;12.78;100.00;98673.34;5026724;28;20445;-54
2023/07/27 00:31:21;;;;;;;3.22;2.00;;;;;;;12.78;100.00;98681.50;5015927;28;20033;-53
2023/07/27 00:33:46;;;;;;;6.32;2.25;;;;;;;12.82;100.00;98666.44;5026555;28;20119;-53
2023/07/27 00:36:12;;;;;;;3.45;1.92;;;;;;;12.88;100.00;98679.13;5012247;28;20176;-54
2023/07/27 00:38:37;;;;;;;3.50;2.05;;;;;;;12.90;100.00;98671.59;5022004;28;20481;-54
2023/07/27 00:41:03;;;;;;;3.17;2.10;;;;;;;13.01;100.00;98666.50;5015490;28;20026;-53
2023/07/27 00:43:28;;;;;;;8.50;2.55;;;;;;;13.12;100.00;98663.03;5022169;28;20034;-54
2023/07/27 00:45:55;;;;;;;3.40;2.10;;;;;;;13.20;100.00;98656.50;5024920;28;20025;-53
2023/07/27 00:48:21;;;;;;;5.82;2.45;;;;;;;13.23;100.00;98653.31;5026217;28;20044;-53
2023/07/27 00:50:47;;;;;;;2.97;1.90;;;;;;;13.25;100.00;98646.63;5030961;28;20044;-54
2023/07/27 00:53:13;;;;;;;4.13;2.45;;;;;;;13.25;100.00;98645.78;5027945;28;20021;-54
2023/07/27 00:55:39;;;;;;;3.85;1.95;;;;;;;13.18;100.00;98639.59;5020036;28;20040;-53
2023/07/27 00:58:05;;;;;;;4.53;2.08;;;;;;;13.11;100.00;98634.22;5018099;28;20051;-54
2023/07/27 01:00:31;;;;;;;3.47;2.10;;;;;;;13.08;100.00;98637.41;5017338;28;20060;-53
2023/07/27 01:02:57;;;;;;;4.10;2.05;;;;;;;13.05;100.00;98635.13;5025625;28;20056;-53
2023/07/27 01:05:23;;;;;;;3.67;1.85;;;;;;;13.10;100.00;98635.31;5010997;28;20065;-53
2023/07/27 01:07:49;;;;;;;5.95;1.77;;;;;;;13.17;100.00;98641.47;5029766;28;20025;-54
2023/07/27 01:10:15;;;;;;;4.10;1.92;;;;;;;13.22;100.00;98630.78;5020231;28;20036;-53
2023/07/27 01:12:54;;;;;;;6.45;2.10;;;;;;;13.27;100.00;98633.69;5023490;28;20481;-53
2023/07/27 01:15:23;;;;;;;3.83;1.70;;;;;;;13.31;100.00;98625.94;5038346;28;20500;-53
2023/07/27 01:17:59;;;;;;;6.85;2.20;;;;;;;13.38;100.00;98624.75;5021014;28;20040;-54
2023/07/27 01:20:49;;;;;;;3.65;2.10;;;;;;;13.33;100.00;98613.75;5019833;28;20461;-53
2023/07/27 01:23:49;;;;;;;2.22;1.63;;;;;;;13.30;100.00;98618.81;5027547;28;20041;-53
2023/07/27 01:26:42;;;;;;;3.78;1.88;;;;;;;13.31;100.00;98598.75;5037285;28;20083;-53
2023/07/27 01:29:35;;;;;;;4.63;1.83;;;;;;;13.22;100.00;98602.78;5030742;28;20075;-54
2023/07/27 01:32:02;;;;;;;4.45;2.60;;;;;;;13.16;100.00;98599.06;5037474;28;20022;-53
2023/07/27 01:34:34;;;;;;;6.60;2.00;;;;;;;13.09;100.00;98601.03;5028663;28;20500;-53
2023/07/27 01:37:03;;;;;;;3.97;2.28;;;;;;;13.11;100.00;98591.59;5048365;28;20034;-53
2023/07/27 01:39:32;;;;;;;3.42;1.63;;;;;;;13.08;100.00;98591.22;5038896;28;20040;-54
2023/07/27 01:41:59;;;;;;;3.95;1.80;;;;;;;13.09;100.00;98590.97;5028741;28;20499;-54
2023/07/27 01:44:26;;;;;;;3.33;1.80;;;;;;;13.05;100.00;98588.97;5032937;28;20025;-53
2023/07/27 01:46:52;;;;;;;4.30;1.95;;;;;;;13.07;100.00;98593.13;5027539;28;20022;-53
2023/07/27 01:49:20;;;;;;;3.67;1.90;;;;;;;13.08;100.00;98583.91;5033791;28;20358;-53
2023/07/27 01:51:46;;;;;;;5.60;1.90;;;;;;;13.07;100.00;98573.25;5036873;28;20100;-53
2023/07/27 01:54:13;;;;;;;5.97;2.00;;;;;;;13.01;100.00;98579.59;5042110;28;20037;-53
2023/07/27 01:56:39;;;;;;;4.13;2.00;;;;;;;12.97;100.00;98584.66;5043430;28;20038;-53
2023/07/27 01:59:06;;;;;;;3.40;1.80;;;;;;;12.90;100.00;98583.88;5024054;28;20412;-54
2023/07/27 02:01:32;;;;;;;3.70;1.90;;;;;;;12.84;100.00;98577.47;5030804;28;20014;-53
2023/07/27 02:03:58;;;;;;;4.00;2.10;;;;;;;12.78;100.00;98583.75;5033562;28;20029;-53
2023/07/27 02:06:24;;;;;;;3.15;1.55;;;;;;;12.76;100.00;98576.91;5026395;28;20429;-53
2023/07/27 02:09:33;;;;;;;3.35;1.85;;;;;;;12.75;100.00;98577.97;5028002;28;20068;-53
2023/07/27 02:12:05;;;;;;;4.20;2.05;;;;;;;12.69;100.00;98582.41;5042650;28;20048;-53
2023/07/27 02:14:43;;;;;;;5.13;2.10;;;;;;;12.73;100.00;98570.03;5024676;28;20040;-53
2023/07/27 02:17:14;;;;;;;3.33;1.67;;;;;;;12.81;100.00;98575.19;5039710;28;20048;-53
2023/07/27 02:19:43;;;;;;;3.92;1.67;;;;;;;12.87;100.00;98568.88;5012427;28;20481;-53
2023/07/27 02:22:11;;;;;;;4.80;2.42;;;;;;;12.98;100.00;98561.03;5028486;28;20025;-53
2023/07/27 02:24:36;;;;;;;2.83;1.50;;;;;;;12.98;100.00;98564.59;5027921;28;20039;-54
2023/07/27 02:27:02;;;;;;;5.47;2.67;;;;;;;12.95;100.00;98554.16;5033558;28;20037;-53
2023/07/27 02:29:27;;;;;;;5.00;2.00;;;;;;;12.99;100.00;98547.22;5020605;28;20088;-55
2023/07/27 02:31:53;;;;;;;4.35;2.25;;;;;;;12.97;100.00;98545.78;5035056;28;20418;-53
2023/07/27 02:34:19;;;;;;;6.03;2.03;;;;;;;12.92;100.00;98550.03;5029163;28;20030;-55
2023/07/27 02:36:44;;;;;;;5.75;1.75;;;;;;;12.84;100.00;98550.31;5027562;28;20423;-54
2023/07/27 02:39:10;;;;;;;4.13;1.90;;;;;;;12.87;100.00;98544.44;5018517;28;20037;-54
2023/07/27 02:41:35;;;;;;;4.07;1.88;;;;;;;12.98;100.00;98536.59;5021696;28;20399;-54
2023/07/27 02:44:00;;;;;;;2.78;1.70;;;;;;;12.85;100.00;98538.38;5025460;28;20116;-54
2023/07/27 02:46:26;;;;;;;2.53;1.77;;;;;;;12.80;100.00;98537.41;5029945;28;20025;-54
2023/07/27 02:48:53;;;;;;;7.38;2.00;;;;;;;12.79;100.00;98533.88;5027659;28;20451;-54
2023/07/27 02:51:19;;;;;;;3.50;1.73;;;;;;;12.77;100.00;98529.72;5031471;28;20116;-54
2023/07/27 02:53:44;;;;;;;5.10;1.90;;;;;;;12.74;100.00;98535.59;5024478;28;20029;-54
2023/07/27 02:56:09;;;;;;;2.45;1.40;;;;;;;12.79;100.00;98528.44;5048543;22;20469;-72
2023/07/27 02:58:34;;;;;;;3.38;2.13;;;;;;;12.74;100.00;98520.13;5050223;28;20036;-72
2023/07/27 03:01:02;;;;;;;4.50;1.90;;;;;;;12.84;100.00;98539.47;5057904;28;20013;-73
2023/07/27 03:03:28;;;;;;;6.03;2.08;;;;;;;12.81;100.00;98515.47;5037225;28;20029;-73
2023/07/27 03:06:01;;;;;;;6.00;1.70;;;;;;;12.93;100.00;98531.84;5032284;28;20025;-73
2023/07/27 03:08:27;;;;;;;3.17;1.80;;;;;;;13.04;100.00;98530.25;4993689;28;20034;-73
2023/07/27 03:10:52;;;;;;;7.63;1.98;;;;;;;13.11;100.00;98525.59;5001711;28;20361;-73
2023/07/27 03:13:18;;;;;;;6.28;1.70;;;;;;;13.15;100.00;98526.78;5014663;28;20033;-73
2023/07/27 03:15:43;;;;;;;3.33;1.70;;;;;;;13.15;100.00;98527.63;5000600;28;20033;-73
2023/07/27 03:18:09;;;;;;;4.15;1.90;;;;;;;13.21;100.00;98525.06;5003306;28;20030;-73
2023/07/27 03:20:42;;;;;;;2.83;1.73;;;;;;;13.26;100.00;98519.78;5003868;28;20034;-81
2023/07/27 03:23:08;;;;;;;3.40;1.73;;;;;;;13.26;100.00;98517.91;5000470;28;20029;-77
2023/07/27 03:25:35;;;;;;;3.42;1.85;;;;;;;13.24;100.00;98519.16;5008240;28;20030;-77
2023/07/27 03:28:02;;;;;;;2.33;1.40;;;;;;;13.24;100.00;98508.31;5009182;28;20058;-77
2023/07/27 03:30:27;;;;;;;4.13;1.80;;;;;;;13.28;100.00;98513.09;5004739;28;20037;-78
2023/07/27 03:32:52;;;;;;;2.63;1.80;;;;;;;13.29;100.00;98514.75;5006228;28;20015;-77
2023/07/27 03:35:18;;;;;;;6.72;1.80;;;;;;;13.29;100.00;98519.34;5001299;28;20029;-77
2023/07/27 03:37:43;;;;;;;5.10;2.10;;;;;;;13.35;100.00;98518.44;5006650;28;20515;-77
2023/07/27 03:40:09;;;;;;;5.07;1.60;;;;;;;13.38;100.00;98520.69;5032610;28;20033;-77
2023/07/27 03:42:34;;;;;;;5.40;1.70;;;;;;;13.36;100.00;98511.94;5018827;28;20033;-77
2023/07/27 03:44:59;;;;;;;3.03;1.60;;;;;;;13.24;100.00;98481.97;5010045;28;20037;-78
2023/07/27 03:47:24;;;;;;;3.45;1.67;;;;;;;13.42;100.00;98502.06;5009660;28;20040;-77
2023/07/27 03:49:50;;;;;;;2.88;1.60;;;;;;;13.43;100.00;98500.97;5011550;28;20036;-77
2023/07/27 03:52:15;;;;;;;4.20;1.60;;;;;;;13.48;100.00;98498.41;5004293;28;20021;-78
2023/07/27 03:54:40;;;;;;;3.78;1.92;;;;;;;13.42;100.00;98478.41;5000093;28;20084;-78
2023/07/27 03:57:06;;;;;;;6.05;1.92;;;;;;;13.53;100.00;98484.97;5009600;28;20025;-80
2023/07/27 03:59:31;;;;;;;2.65;1.60;;;;;;;13.56;100.00;98500.81;5036075;22;20129;-60
2023/07/27 04:01:57;;;;;;;4.88;1.63;;;;;;;13.51;100.00;98487.06;5022361;28;20493;-61
2023/07/27 04:04:23;;;;;;;3.13;1.70;;;;;;;13.67;100.00;98482.88;5027588;28;20028;-63
2023/07/27 04:06:48;;;;;;;5.75;2.15;;;;;;;13.71;100.00;98481.38;5030978;28;20083;-63
2023/07/27 04:09:14;;;;;;;2.35;1.65;;;;;;;13.73;100.00;98471.91;5030024;28;20120;-64
2023/07/27 04:11:39;;;;;;;3.40;1.45;;;;;;;13.77;100.00;98472.28;5032438;28;20029;-60
2023/07/27 04:14:05;;;;;;;4.30;1.48;;;;;;;13.81;100.00;98468.88;5028073;28;20029;-60
2023/07/27 04:16:30;;;;;;;3.13;1.73;;;;;;;13.79;100.00;98470.97;5021556;28;20533;-60
2023/07/27 04:18:57;;;;;;;3.35;1.80;;;;;;;13.84;100.00;98472.19;5024859;28;20039;-60
2023/07/27 04:21:23;;;;;;;3.05;1.77;;;;;;;13.89;100.00;98464.16;5027687;28;20120;-60
2023/07/27 04:23:48;;;;;;;2.50;1.60;;;;;;;13.93;100.00;98462.63;5025481;28;20026;-60
2023/07/27 04:26:15;;;;;;;3.40;1.50;;;;;;;13.91;100.00;98459.28;5024069;28;20036;-60
2023/07/27 04:28:40;;;;;;;3.05;1.63;;;;;;;14.01;100.00;98454.09;5027681;28;20034;-60
2023/07/27 04:31:06;;;;;;;3.28;1.70;;;;;;;14.08;100.00;98452.13;5016778;28;20117;-61
2023/07/27 04:33:31;;;;;;;4.88;1.65;;;;;;;14.15;100.00;98458.28;5028518;28;20056;-60
2023/07/27 04:36:00;;;;;;;3.58;1.60;;;;;;;14.18;100.00;98455.09;5031440;28;20053;-60
2023/07/27 04:38:26;;;;;;;2.72;1.90;;;;;;;14.16;100.00;98443.59;5023928;28;20017;-60
2023/07/27 04:40:51;;;;;;;3.17;1.60;;;;;;;14.20;100.00;98439.38;5028547;28;20034;-60
2023/07/27 04:43:17;;;;;;;5.57;2.05;;;;;;;14.21;100.00;98442.91;5044913;28;20037;-60
2023/07/27 04:45:44;;;;;;;3.88;1.52;;;;;;;14.18;100.00;98444.22;5028929;28;20079;-60
2023/07/27 04:48:10;;;;;;;4.82;1.48;;;;;;;14.26;100.00;98451.19;5039240;28;20083;-60
2023/07/27 04:50:36;;;;;;;3.58;1.55;;;;;;;14.27;100.00;98441.97;5050670;28;20083;-60
2023/07/27 04:53:01;;;;;;;2.05;1.33;;;;;;;14.35;100.00;98451.66;5024883;28;20026;-59
2023/07/27 04:55:27;;;;;;;3.30;1.80;;;;;;;14.43;100.00;98443.13;5028183;28;20619;-59
2023/07/27 04:57:52;;;;;;;5.07;1.50;;;;;;;14.47;100.00;98447.88;5023906;28;20499;-59
2023/07/27 05:00:18;;;;;;;2.80;1.33;;;;;;;14.56;100.00;98439.38;5040006;28;20033;-58
2023/07/27 05:02:44;;;;;;;3.40;1.50;;;;;;;14.66;100.00;98440.44;5030340;28;20036;-59
2023/07/27 05:05:09;;;;;;;2.65;1.35;;;;;;;14.79;100.00;98435.81;5020454;28;20022;-59
2023/07/27 05:07:34;;;;;;;3.10;1.33;;;;;;;14.81;100.00;98436.41;5016065;28;20030;-59
2023/07/27 05:10:00;;;;;;;2.42;1.67;;;;;;;14.90;100.00;98443.94;5031134;28;20027;-59
2023/07/27 05:12:27;;;;;;;4.20;1.38;;;;;;;15.04;100.00;98449.97;5027905;28;20041;-59
2023/07/27 05:14:52;;;;;;;3.70;1.50;;;;;;;15.03;100.00;98445.56;5023851;28;20026;-59
2023/07/27 05:17:18;;;;;;;3.13;1.35;;;;;;;15.03;100.00;98445.56;5026643;28;20354;-59
2023/07/27 05:19:44;;;;;;;1.88;1.20;;;;;;;15.07;100.00;98446.75;5032684;28;20365;-58
2023/07/27 05:22:09;;;;;;;3.85;1.50;;;;;;;15.15;100.00;98447.44;5039672;28;20041;-58
2023/07/27 05:24:34;;;;;;;2.78;1.60;;;;;;;15.28;100.00;98441.72;5027116;28;20094;-58
2023/07/27 05:27:00;;;;;;;2.40;1.65;;;;;;;15.34;100.00;98441.56;5021008;28;22141;-58
2023/07/27 05:29:25;;;;;;;3.08;1.60;;;;;;;15.45;100.00;98437.13;5025548;28;20051;-59
2023/07/27 05:31:51;;;;;;;4.78;1.50;;;;;;;15.58;100.00;98441.47;5033800;28;20032;-59
2023/07/27 05:34:17;;;;;;;1.98;1.42;;;;;;;15.56;100.00;98428.09;5027872;28;20041;-60
2023/07/27 05:36:42;;;;;;;2.28;1.27;;;;;;;15.60;100.00;98433.03;5015593;28;20018;-59
2023/07/27 05:39:08;;;;;;;4.57;1.50;;;;;;;15.73;100.00;98443.66;5026966;28;20025;-59
2023/07/27 05:41:33;;;;;;;3.55;1.50;;;;;;;15.76;100.00;98433.09;5024074;28;20034;-59
2023/07/27 05:43:59;;;;;;;2.58;1.50;;;;;;;15.83;100.00;98443.03;5026143;28;20045;-59
2023/07/27 05:46:24;;;;;;;6.00;1.70;;;;;;;15.80;100.00;98438.91;5026152;28;20037;-58
2023/07/27 05:48:49;;;;;;;2.60;1.40;;;;;;;15.93;100.00;98444.03;5025719;28;20029;-59
2023/07/27 05:51:15;;;;;;;5.55;1.60;;;;;;;16.00;100.00;98439.22;5025925;28;20485;-59
2023/07/27 05:53:40;;;;;;;2.92;1.52;;;;;;;15.86;100.00;98446.09;5027072;28;20040;-59
2023/07/27 05:56:06;;;;;;;4.07;1.33;;;;;;;16.05;100.00;98441.22;5039123;28;20363;-59
2023/07/27 05:58:31;;;;;;;2.60;1.48;;;;;;;15.99;100.00;98450.41;5024769;28;20029;-59
2023/07/27 06:01:01;;;;;;;3.63;1.52;;;;;;;15.94;100.00;98442.94;5037552;28;20025;-58
2023/07/27 06:03:28;;;;;;;2.90;1.38;;;;;;;16.17;100.00;98438.41;5039862;28;20095;-58
2023/07/27 06:05:54;;;;;;;3.42;1.30;;;;;;;16.21;100.00;98450.47;5025702;28;20063;-59
2023/07/27 06:08:20;;;;;;;3.22;1.83;;;;;;;16.39;100.00;98442.03;5029249;28;20036;-58
2023/07/27 06:10:45;;;;;;;2.88;1.67;;;;;;;16.50;100.00;98440.25;5032643;28;20017;-58
2023/07/27 06:13:10;;;;;;;4.05;1.60;;;;;;;16.35;100.00;98445.53;5036607;28;20018;-59
2023/07/27 06:15:36;;;;;;;3.83;1.80;;;;;;;16.20;100.00;98441.47;5042604;28;20095;-59
2023/07/27 06:18:02;;;;;;;6.15;1.80;;;;;;;16.31;100.00;98453.38;5019569;28;20144;-59
2023/07/27 06:20:27;;;;;;;4.60;1.40;;;;;;;16.43;100.00;98450.56;5020913;28;20125;-59
2023/07/27 06:22:53;;;;;;;2.42;1.48;;;;;;;16.58;100.00;98439.00;5040737;28;20017;-59
2023/07/27 06:25:18;;;;;;;3.60;1.70;;;;;;;16.75;100.00;98433.53;5036471;28;20030;-63
2023/07/27 06:27:44;;;;;;;4.22;1.65;;;;;;;16.91;100.00;98437.31;5028635;28;20034;-64
2023/07/27 06:30:09;;;;;;;2.15;1.42;;;;;;;16.92;100.00;98434.31;5029712;28;20024;-64
2023/07/27 06:32:35;;;;;;;2.33;1.42;;;;;;;17.12;100.00;98422.00;5031063;28;20029;-64
2023/07/27 06:35:01;;;;;;;3.55;1.67;;;;;;;17.19;100.00;98434.41;5021708;28;20025;-64
2023/07/27 06:37:26;;;;;;;10.13;1.80;;;;;;;17.21;100.00;98423.19;5028556;28;20488;-64
2023/07/27 06:39:52;;;;;;;3.67;1.83;;;;;;;17.46;100.00;98425.41;5032837;28;20116;-64
2023/07/27 06:42:19;;;;;;;4.75;1.80;;;;;;;17.64;100.00;98433.25;5026660;28;20443;-64
2023/07/27 06:44:45;;;;;;;5.75;1.80;;;;;;;17.82;100.00;98414.84;5046356;28;20029;-64
2023/07/27 06:47:10;;;;;;;3.33;1.55;;;;;;;18.01;100.00;98421.56;5020216;28;20136;-64
2023/07/27 06:49:36;;;;;;;4.75;1.52;;;;;;;18.33;100.00;98415.22;5031360;28;20094;-64
2023/07/27 06:52:01;;;;;;;2.42;1.30;;;;;;;18.40;100.00;98410.34;5049847;28;20108;-64
2023/07/27 06:54:26;;;;;;;4.43;1.52;;;;;;;18.29;100.00;98416.88;5027722;28;20397;-64
2023/07/27 06:56:52;;;;;;;3.72;1.30;;;;;;;18.66;100.00;98392.16;5035972;28;20087;-64
2023/07/27 06:59:17;;;;;;;3.08;1.48;;;;;;;18.75;100.00;98390.56;5039544;28;20029;-64
2023/07/27 07:01:43;;;;;;;2.90;1.40;;;;;;;18.23;100.00;98407.75;5024491;28;20419;-65
2023/07/27 07:04:09;;;;;;;2.80;1.55;;;;;;;18.61;100.00;98401.16;5032223;28;20127;-64
2023/07/27 07:06:35;;;;;;;3.75;1.50;;;;;;;18.81;100.00;98397.75;5030679;28;20473;-63
2023/07/27 07:09:00;;;;;;;5.63;1.30;;;;;;;18.95;100.00;98395.34;5046255;28;20029;-64
2023/07/27 07:11:26;;;;;;;8.23;1.70;;;;;;;19.13;100.00;98385.81;5009819;28;20025;-64
2023/07/27 07:13:51;;;;;;;4.72;1.70;;;;;;;18.89;100.00;98390.94;5032442;28;20030;-64
2023/07/27 07:16:18;;;;;;;4.68;1.50;;;;;;;18.76;100.00;98380.47;5026156;28;20041;-64
2023/07/27 07:18:43;;;;;;;2.88;1.30;;;;;;;18.75;100.00;98381.53;5025024;28;20026;-64
2023/07/27 07:21:09;;;;;;;2.97;1.67;;;;;;;18.95;100.00;98387.09;5028833;28;20075;-64
2023/07/27 07:23:34;;;;;;;2.17;1.50;;;;;;;19.23;100.00;98385.00;5032715;28;20021;-64
2023/07/27 07:26:00;;;;;;;3.70;1.40;;;;;;;19.03;100.00;98381.09;5022452;28;20535;-64
2023/07/27 07:28:25;;;;;;;4.30;1.67;;;;;;;19.05;100.00;98375.38;5028389;28;20446;-65
2023/07/27 07:30:51;;;;;;;7.20;1.58;;;;;;;19.26;100.00;98368.03;5038470;28;20036;-65
2023/07/27 07:33:16;;;;;;;3.67;2.13;;;;;;;19.55;100.00;98378.50;5045126;28;20017;-64
2023/07/27 07:35:42;;;;;;;3.33;1.50;;;;;;;19.75;100.00;98380.47;5026218;28;20026;-65
2023/07/27 07:38:07;;;;;;;4.95;1.60;;;;;;;19.15;100.00;98375.41;5037675;28;20040;-65
2023/07/27 07:40:33;;;;;;;3.50;1.80;;;;;;;19.01;100.00;98376.97;5021107;28;20030;-65
2023/07/27 07:42:59;;;;;;;3.30;1.70;;;;;;;19.20;100.00;98366.34;5028790;28;20477;-65
2023/07/27 07:45:25;;;;;;;5.25;1.80;;;;;;;19.78;100.00;98364.28;5025401;28;20037;-65
2023/07/27 07:47:50;;;;;;;7.35;1.50;;;;;;;19.83;100.00;98367.03;5027887;28;20032;-66
2023/07/27 07:50:15;;;;;;;3.35;1.70;;;;;;;19.57;100.00;98368.91;5030408;28;20022;-65
2023/07/27 07:52:41;;;;;;;2.75;1.55;;;;;;;19.40;100.00;98362.84;5024147;28;20026;-65
2023/07/27 07:55:09;;;;;;;4.07;1.60;;;;;;;19.23;100.00;98355.69;5021055;28;20025;-65
2023/07/27 07:57:35;;;;;;;3.17;1.73;;;;;;;19.37;100.00;98350.47;5022834;28;20022;-65
2023/07/27 08:00:00;;;;;;;4.03;1.80;;;;;;;19.41;100.00;98343.38;5033284;28;20040;-64
2023/07/27 08:02:30;;;;;;;3.75;1.58;;;;;;;19.52;100.00;98343.34;5025177;28;20032;-65
2023/07/27 08:04:55;;;;;;;4.00;1.30;;;;;;;19.70;100.00;98351.06;5016935;28;20022;-65
2023/07/27 08:07:21;;;;;;;2.67;1.50;;;;;;;19.86;100.00;98339.03;5042799;28;20029;-65
2023/07/27 08:09:46;;;;;;;6.75;1.65;;;;;;;19.95;100.00;98343.97;5027603;28;20060;-65
2023/07/27 08:12:11;;;;;;;4.63;1.80;;;;;;;19.76;100.00;98350.00;5034082;28;20025;-67
2023/07/27 08:14:38;;;;;;;3.88;1.40;;;;;;;19.84;100.00;98348.63;5044322;28;20036;-65
2023/07/27 08:17:03;;;;;;;3.10;1.55;;;;;;;19.26;100.00;98355.13;5023761;28;20021;-65
2023/07/27 08:19:28;;;;;;;6.10;1.85;;;;;;;18.79;100.00;98356.06;5028152;28;20571;-65
2023/07/27 08:21:54;;;;;;;3.45;1.70;;;;;;;18.23;100.00;98352.19;5022695;28;20037;-65
2023/07/27 08:24:19;;;;;;;6.00;1.67;;;;;;;18.04;100.00;98360.81;5025708;28;20029;-67
2023/07/27 08:26:46;;;;;;;2.63;1.45;;;;;;;17.90;100.00;98362.38;5027363;28;20029;-67
2023/07/27 08:29:11;;;;;;;2.42;1.40;;;;;;;17.74;100.00;98364.94;5036986;28;20030;-66
2023/07/27 08:31:37;;;;;;;4.38;1.80;;;;;;;17.66;100.00;98359.94;5032309;28;20028;-66
2023/07/27 08:34:02;;;;;;;2.88;1.48;;;;;;;17.69;100.00;98373.09;5044620;28;20033;-66
2023/07/27 08:36:28;;;;;;;3.45;1.45;;;;;;;17.75;100.00;98363.03;5021398;28;20037;-66
2023/07/27 08:38:53;;;;;;;3.47;1.55;;;;;;;17.72;100.00;98361.63;5043738;28;20030;-66
2023/07/27 08:41:19;;;;;;;4.60;1.80;;;;;;;17.89;100.00;98363.44;5018339;28;20025;-66
2023/07/27 08:43:45;;;;;;;5.22;1.42;;;;;;;17.98;100.00;98364.59;5023171;28;20021;-66
2023/07/27 08:46:11;;;;;;;4.85;1.50;;;;;;;17.97;100.00;98357.47;5044521;28;20026;-66
2023/07/27 08:48:37;;;;;;;3.03;1.40;;;;;;;17.55;100.00;98363.66;5028464;28;20099;-66
2023/07/27 08:51:03;;;;;;;2.80;1.58;;;;;;;17.36;100.00;98363.22;5034143;28;20029;-65
2023/07/27 08:53:29;;;;;;;3.58;1.52;;;;;;;17.14;100.00;98360.53;5029747;28;20034;-64
2023/07/27 08:55:55;;;;;;;4.93;1.70;;;;;;;16.97;100.00;98354.31;5028667;28;20494;-64
2023/07/27 08:58:21;;;;;;;2.67;1.70;;;;;;;16.87;100.00;98338.63;5083189;22;20052;-79
2023/07/27 09:00:48;;;;;;;4.57;1.52;;;;;;;16.65;100.00;98325.78;5087830;28;20009;-76
2023/07/27 09:03:13;;;;;;;2.88;1.90;;;;;;;16.67;100.00;98338.38;5087463;28;20010;-77
2023/07/27 09:05:59;;;;;;;5.68;1.70;;;;;;;16.60;100.00;98333.91;5092107;28;20017;-81
2023/07/27 09:08:29;;;;;;;4.10;1.38;;;;;;;16.56;100.00;98335.50;5061077;28;20044;-79
2023/07/27 09:10:55;;;;;;;4.80;1.42;;;;;;;16.61;100.00;98346.50;5069529;28;20096;-78
2023/07/27 09:13:20;;;;;;;3.55;1.65;;;;;;;16.60;100.00;98353.03;5079169;28;20041;-74
2023/07/27 09:15:45;;;;;;;4.68;1.90;;;;;;;16.65;100.00;98349.53;5072472;28;20035;-78
2023/07/27 09:18:13;;;;;;;4.93;1.77;;;;;;;16.63;100.00;98352.50;5068727;28;20021;-72
2023/07/27 09:20:39;;;;;;;2.83;1.63;;;;;;;16.36;100.00;98349.69;5059362;28;20394;-72
2023/07/27 09:23:05;;;;;;;4.68;2.00;;;;;;;16.16;100.00;98349.41;5061243;28;20024;-72
2023/07/27 09:25:30;;;;;;;3.95;1.55;;;;;;;16.20;100.00;98359.59;5056625;28;20052;-75
2023/07/27 09:27:56;;;;;;;5.72;2.13;;;;;;;16.37;100.00;98364.19;5065282;28;20122;-72
2023/07/27 09:30:23;;;;;;;5.03;1.50;;;;;;;16.43;100.00;98353.09;5075142;28;20063;-74
2023/07/27 09:32:50;;;;;;;5.60;1.80;;;;;;;16.72;100.00;98369.31;5058431;28;20582;-72
2023/07/27 09:35:17;;;;;;;4.53;1.95;;;;;;;16.81;100.00;98367.78;5074131;28;20039;-72
2023/07/27 09:37:47;;;;;;;5.47;1.58;;;;;;;16.74;100.00;98352.63;5059916;28;20029;-72
2023/07/27 09:40:16;;;;;;;4.93;1.52;;;;;;;16.75;100.00;98344.19;5067286;28;20111;-74
2023/07/27 09:42:43;;;;;;;4.30;1.77;;;;;;;16.92;100.00;98341.41;5079708;28;20112;-75
2023/07/27 09:45:11;;;;;;;3.33;1.15;;;;;;;17.20;100.00;98353.19;5074764;28;20040;-76
2023/07/27 09:47:36;;;;;;;2.83;1.58;;;;;;;17.41;100.00;98344.13;5066813;28;20082;-74
2023/07/27 09:50:02;;;;;;;3.25;1.70;;;;;;;17.50;100.00;98339.00;5066834;28;20025;-74
2023/07/27 09:52:29;;;;;;;5.30;1.90;;;;;;;17.35;100.00;98336.97;5059926;28;20028;-74
2023/07/27 09:54:56;;;;;;;4.65;1.95;;;;;;;17.37;100.00;98328.47;5064729;28;20081;-73
2023/07/27 09:57:22;;;;;;;3.20;1.85;;;;;;;17.41;100.00;98326.88;5063145;28;20028;-74
2023/07/27 09:59:48;;;;;;;4.05;1.55;;;;;;;17.48;100.00;98330.25;5058826;28;20068;-76
2023/07/27 10:02:14;;;;;;;4.53;1.77;;;;;;;17.36;100.00;98314.00;5063493;28;20390;-75
2023/07/27 10:04:42;;;;;;;3.83;1.75;;;;;;;17.19;100.00;98319.59;5071181;28;20028;-75
2023/07/27 10:07:07;;;;;;;5.38;2.00;;;;;;;17.06;100.00;98304.41;5063734;28;20112;-75
2023/07/27 10:09:32;;;;;;;7.25;1.98;;;;;;;17.33;100.00;98314.50;5058690;28;20056;-74
2023/07/27 10:12:01;;;;;;;4.93;1.80;;;;;;;17.52;100.00;98312.22;5064579;28;20036;-74
2023/07/27 10:14:28;;;;;;;4.15;2.10;;;;;;;17.57;100.00;98303.22;5064628;28;20097;-75
2023/07/27 10:17:08;;;;;;;3.72;1.90;;;;;;;17.52;100.00;98295.81;5064202;28;20082;-75
2023/07/27 10:19:43;;;;;;;;;;;;;;;17.67;100.00;98301.41;5055381;28;20028;-74
2023/07/27 10:22:19;;;;;;;4.28;1.60;;;;;;;17.86;100.00;98298.28;5069608;28;19916;-75
2023/07/27 10:24:58;;;;;;;3.30;1.80;;;;;;;18.01;100.00;98295.66;5091384;28;20027;-74
2023/07/27 10:27:24;;;;;;;6.38;1.92;;;;;;;18.01;100.00;98284.69;5078734;28;20036;-76
2023/07/27 10:30:11;;;;;;;9.02;1.70;;;;;;;18.16;100.00;98301.22;5080432;28;20054;-77
2023/07/27 10:32:37;;;;;;;5.53;2.17;;;;;;;18.25;100.00;98276.06;5072904;28;20032;-75
2023/07/27 10:35:07;;;;;;;6.72;1.80;;;;;;;18.34;100.00;98285.44;5069732;28;20040;-78
2023/07/27 10:37:53;;;;;;;2.78;1.67;;;;;;;18.20;100.00;98278.78;5077398;28;20044;-75
2023/07/27 10:40:26;;;;;;;4.72;1.83;;;;;;;18.37;100.00;98280.25;5079872;28;20020;-75
2023/07/27 10:42:58;;;;;;;3.55;1.55;;;;;;;18.57;100.00;98267.72;5071692;28;20054;-74
2023/07/27 10:45:25;;;;;;;5.35;1.90;;;;;;;18.60;100.00;98258.94;5081736;28;20099;-75
2023/07/27 10:47:55;;;;;;;3.65;1.60;;;;;;;18.77;100.00;98261.50;5074020;28;20504;-77
2023/07/27 10:50:20;;;;;;;3.67;1.80;;;;;;;18.86;100.00;98248.91;5071569;28;20020;-78
2023/07/27 10:52:51;;;;;;;3.42;1.80;;;;;;;19.14;100.00;98255.00;5064210;28;20058;-77
2023/07/27 10:55:16;;;;;;;6.15;1.70;;;;;;;19.39;100.00;98257.78;5065891;28;20032;-77
2023/07/27 10:57:42;;;;;;;3.90;1.90;;;;;;;19.46;100.00;98257.47;5064431;28;20059;-77
2023/07/27 11:00:09;;;;;;;8.70;2.08;;;;;;;19.23;100.00;98253.34;5062485;28;20052;-77
2023/07/27 11:02:36;;;;;;;3.47;1.70;;;;;;;18.96;100.00;98240.72;5057703;28;20497;-77
2023/07/27 11:05:06;;;;;;;6.28;1.75;;;;;;;18.90;100.00;98236.31;5069043;28;20100;-78
2023/07/27 11:07:33;;;;;;;3.10;1.55;;;;;;;19.07;100.00;98252.50;5055729;28;20100;-78
2023/07/27 11:10:04;;;;;;;3.70;1.75;;;;;;;19.20;100.00;98245.66;5058618;28;20033;-74
2023/07/27 11:12:30;;;;;;;4.47;2.10;;;;;;;19.31;100.00;98235.53;5059853;28;20585;-73
2023/07/27 11:15:12;;;;;;;3.13;1.60;;;;;;;19.54;100.00;98234.16;5067526;28;20036;-75
2023/07/27 11:17:38;;;;;;;3.10;1.33;;;;;;;19.72;100.00;98230.06;5061980;28;20044;-74
2023/07/27 11:20:04;;;;;;;6.80;1.35;;;;;;;19.74;100.00;98231.41;5056420;28;20032;-74
2023/07/27 11:22:30;;;;;;;3.28;1.70;;;;;;;19.86;100.00;98220.97;5065852;28;20052;-77
2023/07/27 11:24:56;;;;;;;4.05;2.00;;;;;;;20.06;100.00;98203.59;5062959;28;20031;-77